sensor_id;sensor_type;location;lat;lon;timestamp;temperature;humidity
11647;DHT22;5880;52.342;9.662;2022-10-12T00:00:50;11.10;58.70
11647;DHT22;5880;52.342;9.662;2022-10-12T00:03:16;11.10;58.60
11647;DHT22;5880;52.342;9.662;2022-10-12T00:05:42;11.10;58.50
11647;DHT22;5880;52.342;9.662;2022-10-12T00:08:08;11.00;58.50
11647;DHT22;5880;52.342;9.662;2022-10-12T00:10:41;11.00;58.60
11647;DHT22;5880;52.342;9.662;2022-10-12T00:13:09;11.00;59.00
11647;DHT22;5880;52.342;9.662;2022-10-12T00:15:39;10.90;58.80
11647;DHT22;5880;52.342;9.662;2022-10-12T00:18:06;10.90;58.80
11647;DHT22;5880;52.342;9.662;2022-10-12T00:20:32;10.90;58.70
11647;DHT22;5880;52.342;9.662;2022-10-12T00:22:58;10.80;58.60
11647;DHT22;5880;52.342;9.662;2022-10-12T00:25:23;10.80;58.60
11647;DHT22;5880;52.342;9.662;2022-10-12T00:27:49;10.80;58.70
11647;DHT22;5880;52.342;9.662;2022-10-12T00:30:15;10.70;58.80
11647;DHT22;5880;52.342;9.662;2022-10-12T00:32:41;10.80;58.80
11647;DHT22;5880;52.342;9.662;2022-10-12T00:35:07;10.70;58.90
11647;DHT22;5880;52.342;9.662;2022-10-12T00:37:32;10.70;58.80
11647;DHT22;5880;52.342;9.662;2022-10-12T00:39:58;10.60;58.70
11647;DHT22;5880;52.342;9.662;2022-10-12T00:42:24;10.60;58.80
11647;DHT22;5880;52.342;9.662;2022-10-12T00:44:50;10.60;58.80
11647;DHT22;5880;52.342;9.662;2022-10-12T00:47:32;10.60;58.80
11647;DHT22;5880;52.342;9.662;2022-10-12T00:55:33;10.40;59.20
11647;DHT22;5880;52.342;9.662;2022-10-12T00:58:04;10.50;59.20
11647;DHT22;5880;52.342;9.662;2022-10-12T01:00:33;10.50;59.20
11647;DHT22;5880;52.342;9.662;2022-10-12T01:03:02;10.40;59.00
11647;DHT22;5880;52.342;9.662;2022-10-12T01:05:30;10.40;59.70
11647;DHT22;5880;52.342;9.662;2022-10-12T01:07:57;10.40;59.00
11647;DHT22;5880;52.342;9.662;2022-10-12T01:10:25;10.40;59.00
11647;DHT22;5880;52.342;9.662;2022-10-12T01:12:51;10.30;59.20
11647;DHT22;5880;52.342;9.662;2022-10-12T01:15:17;10.30;59.20
11647;DHT22;5880;52.342;9.662;2022-10-12T01:21:01;10.30;59.90
11647;DHT22;5880;52.342;9.662;2022-10-12T01:30:04;10.30;59.90
11647;DHT22;5880;52.342;9.662;2022-10-12T01:36:05;10.30;60.00
11647;DHT22;5880;52.342;9.662;2022-10-12T01:42:06;10.20;59.60
11647;DHT22;5880;52.342;9.662;2022-10-12T01:44:36;10.20;59.50
11647;DHT22;5880;52.342;9.662;2022-10-12T01:47:02;10.20;59.20
11647;DHT22;5880;52.342;9.662;2022-10-12T01:49:31;10.20;59.30
11647;DHT22;5880;52.342;9.662;2022-10-12T01:52:39;10.20;59.50
11647;DHT22;5880;52.342;9.662;2022-10-12T01:55:35;10.20;59.90
11647;DHT22;5880;52.342;9.662;2022-10-12T01:58:30;10.20;59.20
11647;DHT22;5880;52.342;9.662;2022-10-12T02:04:09;10.10;59.40
11647;DHT22;5880;52.342;9.662;2022-10-12T02:06:58;10.10;59.10
11647;DHT22;5880;52.342;9.662;2022-10-12T02:09:31;10.10;59.50
11647;DHT22;5880;52.342;9.662;2022-10-12T02:12:19;10.00;59.10
11647;DHT22;5880;52.342;9.662;2022-10-12T02:14:53;10.00;59.80
11647;DHT22;5880;52.342;9.662;2022-10-12T02:17:23;10.00;59.30
11647;DHT22;5880;52.342;9.662;2022-10-12T02:19:57;10.00;59.20
11647;DHT22;5880;52.342;9.662;2022-10-12T02:22:31;10.00;59.60
11647;DHT22;5880;52.342;9.662;2022-10-12T02:25:03;9.90;59.40
11647;DHT22;5880;52.342;9.662;2022-10-12T02:27:35;10.00;59.40
11647;DHT22;5880;52.342;9.662;2022-10-12T02:30:03;9.90;59.60
11647;DHT22;5880;52.342;9.662;2022-10-12T02:35:19;9.90;60.10
11647;DHT22;5880;52.342;9.662;2022-10-12T02:38:00;10.00;59.70
11647;DHT22;5880;52.342;9.662;2022-10-12T02:40:36;9.90;59.80
11647;DHT22;5880;52.342;9.662;2022-10-12T02:43:14;9.90;59.70
11647;DHT22;5880;52.342;9.662;2022-10-12T02:45:46;9.90;59.80
11647;DHT22;5880;52.342;9.662;2022-10-12T02:48:19;9.90;59.90
11647;DHT22;5880;52.342;9.662;2022-10-12T02:50:50;9.90;60.00
11647;DHT22;5880;52.342;9.662;2022-10-12T02:53:21;9.90;59.90
11647;DHT22;5880;52.342;9.662;2022-10-12T02:55:51;9.90;59.80
11647;DHT22;5880;52.342;9.662;2022-10-12T02:58:18;9.80;59.80
11647;DHT22;5880;52.342;9.662;2022-10-12T03:00:44;9.90;59.80
11647;DHT22;5880;52.342;9.662;2022-10-12T03:03:10;9.90;59.80
11647;DHT22;5880;52.342;9.662;2022-10-12T03:05:36;9.90;59.90
11647;DHT22;5880;52.342;9.662;2022-10-12T03:08:03;9.90;59.90
11647;DHT22;5880;52.342;9.662;2022-10-12T03:10:29;9.90;59.90
11647;DHT22;5880;52.342;9.662;2022-10-12T03:12:54;9.90;59.80
11647;DHT22;5880;52.342;9.662;2022-10-12T03:15:20;9.90;59.80
11647;DHT22;5880;52.342;9.662;2022-10-12T03:17:46;9.90;59.70
11647;DHT22;5880;52.342;9.662;2022-10-12T03:20:12;9.90;59.70
11647;DHT22;5880;52.342;9.662;2022-10-12T03:22:37;9.90;59.60
11647;DHT22;5880;52.342;9.662;2022-10-12T03:25:03;9.90;59.60
11647;DHT22;5880;52.342;9.662;2022-10-12T03:27:29;9.80;59.50
11647;DHT22;5880;52.342;9.662;2022-10-12T03:29:55;9.80;59.50
11647;DHT22;5880;52.342;9.662;2022-10-12T03:32:21;9.80;59.40
11647;DHT22;5880;52.342;9.662;2022-10-12T03:34:47;9.80;59.40
11647;DHT22;5880;52.342;9.662;2022-10-12T03:37:12;9.70;59.40
11647;DHT22;5880;52.342;9.662;2022-10-12T03:39:38;9.70;59.50
11647;DHT22;5880;52.342;9.662;2022-10-12T03:42:04;9.70;59.50
11647;DHT22;5880;52.342;9.662;2022-10-12T03:44:30;9.70;59.60
11647;DHT22;5880;52.342;9.662;2022-10-12T03:46:55;9.60;59.50
11647;DHT22;5880;52.342;9.662;2022-10-12T03:49:21;9.60;59.50
11647;DHT22;5880;52.342;9.662;2022-10-12T03:51:47;9.60;59.60
11647;DHT22;5880;52.342;9.662;2022-10-12T03:54:13;9.60;59.60
11647;DHT22;5880;52.342;9.662;2022-10-12T03:56:38;9.50;59.60
11647;DHT22;5880;52.342;9.662;2022-10-12T03:59:04;9.50;59.70
11647;DHT22;5880;52.342;9.662;2022-10-12T04:01:30;9.50;59.70
11647;DHT22;5880;52.342;9.662;2022-10-12T04:03:56;9.40;59.70
11647;DHT22;5880;52.342;9.662;2022-10-12T04:06:21;9.40;59.70
11647;DHT22;5880;52.342;9.662;2022-10-12T04:08:47;9.40;59.90
11647;DHT22;5880;52.342;9.662;2022-10-12T04:11:13;9.40;60.20
11647;DHT22;5880;52.342;9.662;2022-10-12T04:13:38;9.40;59.90
11647;DHT22;5880;52.342;9.662;2022-10-12T04:16:05;9.40;59.90
11647;DHT22;5880;52.342;9.662;2022-10-12T04:18:32;9.40;59.90
11647;DHT22;5880;52.342;9.662;2022-10-12T04:20:59;9.40;59.90
11647;DHT22;5880;52.342;9.662;2022-10-12T04:23:26;9.40;59.80
11647;DHT22;5880;52.342;9.662;2022-10-12T04:25:51;9.30;59.80
11647;DHT22;5880;52.342;9.662;2022-10-12T04:28:17;9.30;59.90
11647;DHT22;5880;52.342;9.662;2022-10-12T04:30:44;9.30;59.90
11647;DHT22;5880;52.342;9.662;2022-10-12T04:33:10;9.30;60.70
11647;DHT22;5880;52.342;9.662;2022-10-12T04:35:35;9.30;59.90
11647;DHT22;5880;52.342;9.662;2022-10-12T04:38:01;9.30;60.10
11647;DHT22;5880;52.342;9.662;2022-10-12T04:40:28;9.30;60.00
11647;DHT22;5880;52.342;9.662;2022-10-12T04:42:53;9.30;60.00
11647;DHT22;5880;52.342;9.662;2022-10-12T04:45:20;9.20;59.90
11647;DHT22;5880;52.342;9.662;2022-10-12T04:47:47;9.20;60.00
11647;DHT22;5880;52.342;9.662;2022-10-12T04:50:13;9.20;60.10
11647;DHT22;5880;52.342;9.662;2022-10-12T04:52:39;9.20;60.20
11647;DHT22;5880;52.342;9.662;2022-10-12T04:55:05;9.20;60.20
11647;DHT22;5880;52.342;9.662;2022-10-12T04:57:31;9.20;60.20
11647;DHT22;5880;52.342;9.662;2022-10-12T04:59:57;9.20;60.20
11647;DHT22;5880;52.342;9.662;2022-10-12T05:02:22;9.20;60.20
11647;DHT22;5880;52.342;9.662;2022-10-12T05:04:48;9.20;60.10
11647;DHT22;5880;52.342;9.662;2022-10-12T05:07:14;9.20;60.10
11647;DHT22;5880;52.342;9.662;2022-10-12T05:09:40;9.20;60.20
11647;DHT22;5880;52.342;9.662;2022-10-12T05:12:05;9.20;60.20
11647;DHT22;5880;52.342;9.662;2022-10-12T05:14:31;9.20;60.40
11647;DHT22;5880;52.342;9.662;2022-10-12T05:16:57;9.20;60.40
11647;DHT22;5880;52.342;9.662;2022-10-12T05:19:22;9.20;60.50
11647;DHT22;5880;52.342;9.662;2022-10-12T05:21:48;9.20;60.60
11647;DHT22;5880;52.342;9.662;2022-10-12T05:24:14;9.20;60.50
11647;DHT22;5880;52.342;9.662;2022-10-12T05:26:40;9.20;60.50
11647;DHT22;5880;52.342;9.662;2022-10-12T05:29:05;9.20;60.40
11647;DHT22;5880;52.342;9.662;2022-10-12T05:31:31;9.20;60.40
11647;DHT22;5880;52.342;9.662;2022-10-12T05:33:57;9.10;60.30
11647;DHT22;5880;52.342;9.662;2022-10-12T05:36:22;9.20;60.30
11647;DHT22;5880;52.342;9.662;2022-10-12T05:38:48;9.10;60.30
11647;DHT22;5880;52.342;9.662;2022-10-12T05:41:14;9.10;60.40
11647;DHT22;5880;52.342;9.662;2022-10-12T05:43:40;9.10;60.50
11647;DHT22;5880;52.342;9.662;2022-10-12T05:46:05;9.10;60.60
11647;DHT22;5880;52.342;9.662;2022-10-12T05:48:31;9.10;60.70
11647;DHT22;5880;52.342;9.662;2022-10-12T05:50:57;9.10;60.70
11647;DHT22;5880;52.342;9.662;2022-10-12T05:53:23;9.10;60.90
11647;DHT22;5880;52.342;9.662;2022-10-12T05:55:59;9.10;61.20
11647;DHT22;5880;52.342;9.662;2022-10-12T05:58:27;9.10;61.50
11647;DHT22;5880;52.342;9.662;2022-10-12T06:01:02;9.20;61.20
11647;DHT22;5880;52.342;9.662;2022-10-12T06:03:32;9.20;61.30
11647;DHT22;5880;52.342;9.662;2022-10-12T06:05:58;9.20;61.40
11647;DHT22;5880;52.342;9.662;2022-10-12T06:08:23;9.20;61.50
11647;DHT22;5880;52.342;9.662;2022-10-12T06:10:50;9.20;61.60
11647;DHT22;5880;52.342;9.662;2022-10-12T06:13:16;9.30;61.90
11647;DHT22;5880;52.342;9.662;2022-10-12T06:15:44;9.30;61.80
11647;DHT22;5880;52.342;9.662;2022-10-12T06:18:12;9.30;61.90
11647;DHT22;5880;52.342;9.662;2022-10-12T06:20:38;9.40;61.90
11647;DHT22;5880;52.342;9.662;2022-10-12T06:23:04;9.40;61.90
11647;DHT22;5880;52.342;9.662;2022-10-12T06:25:30;9.40;61.90
11647;DHT22;5880;52.342;9.662;2022-10-12T06:27:55;9.50;62.00
11647;DHT22;5880;52.342;9.662;2022-10-12T06:30:21;9.50;61.80
11647;DHT22;5880;52.342;9.662;2022-10-12T06:32:47;9.50;61.90
11647;DHT22;5880;52.342;9.662;2022-10-12T06:35:12;9.60;61.70
11647;DHT22;5880;52.342;9.662;2022-10-12T06:37:38;9.60;61.80
11647;DHT22;5880;52.342;9.662;2022-10-12T06:40:04;9.60;61.80
11647;DHT22;5880;52.342;9.662;2022-10-12T06:42:30;9.60;61.90
11647;DHT22;5880;52.342;9.662;2022-10-12T06:44:56;9.70;62.00
11647;DHT22;5880;52.342;9.662;2022-10-12T06:47:22;9.70;62.10
11647;DHT22;5880;52.342;9.662;2022-10-12T06:49:47;9.80;62.20
11647;DHT22;5880;52.342;9.662;2022-10-12T06:52:13;9.80;62.30
11647;DHT22;5880;52.342;9.662;2022-10-12T06:54:39;9.90;62.30
11647;DHT22;5880;52.342;9.662;2022-10-12T06:57:06;9.90;62.40
11647;DHT22;5880;52.342;9.662;2022-10-12T06:59:31;10.00;62.40
11647;DHT22;5880;52.342;9.662;2022-10-12T07:01:57;10.00;62.30
11647;DHT22;5880;52.342;9.662;2022-10-12T07:04:23;10.10;62.50
11647;DHT22;5880;52.342;9.662;2022-10-12T07:06:49;10.10;62.50
11647;DHT22;5880;52.342;9.662;2022-10-12T07:09:16;10.20;62.60
11647;DHT22;5880;52.342;9.662;2022-10-12T07:11:41;10.20;62.70
11647;DHT22;5880;52.342;9.662;2022-10-12T07:14:07;10.30;62.80
11647;DHT22;5880;52.342;9.662;2022-10-12T07:16:33;10.40;62.80
11647;DHT22;5880;52.342;9.662;2022-10-12T07:18:59;10.40;62.90
11647;DHT22;5880;52.342;9.662;2022-10-12T07:21:25;10.50;62.90
11647;DHT22;5880;52.342;9.662;2022-10-12T07:23:51;10.60;62.90
11647;DHT22;5880;52.342;9.662;2022-10-12T07:26:17;10.60;62.90
11647;DHT22;5880;52.342;9.662;2022-10-12T07:28:43;10.70;62.90
11647;DHT22;5880;52.342;9.662;2022-10-12T07:31:09;10.80;62.90
11647;DHT22;5880;52.342;9.662;2022-10-12T07:33:36;10.80;62.80
11647;DHT22;5880;52.342;9.662;2022-10-12T07:36:05;10.90;62.90
11647;DHT22;5880;52.342;9.662;2022-10-12T07:38:31;10.90;62.80
11647;DHT22;5880;52.342;9.662;2022-10-12T07:40:58;11.00;62.70
11647;DHT22;5880;52.342;9.662;2022-10-12T07:43:29;11.10;62.70
11647;DHT22;5880;52.342;9.662;2022-10-12T07:45:55;11.10;62.70
11647;DHT22;5880;52.342;9.662;2022-10-12T07:48:21;11.20;62.60
11647;DHT22;5880;52.342;9.662;2022-10-12T07:50:48;11.20;62.60
11647;DHT22;5880;52.342;9.662;2022-10-12T07:53:15;11.20;62.60
11647;DHT22;5880;52.342;9.662;2022-10-12T07:55:40;11.30;62.70
11647;DHT22;5880;52.342;9.662;2022-10-12T07:58:06;11.40;62.70
11647;DHT22;5880;52.342;9.662;2022-10-12T08:00:32;11.40;62.70
11647;DHT22;5880;52.342;9.662;2022-10-12T08:02:58;11.50;62.80
11647;DHT22;5880;52.342;9.662;2022-10-12T08:05:25;11.50;62.80
11647;DHT22;5880;52.342;9.662;2022-10-12T08:07:51;11.60;63.60
11647;DHT22;5880;52.342;9.662;2022-10-12T08:10:18;11.60;62.80
11647;DHT22;5880;52.342;9.662;2022-10-12T08:12:45;11.70;62.70
11647;DHT22;5880;52.342;9.662;2022-10-12T08:15:11;11.70;62.80
11647;DHT22;5880;52.342;9.662;2022-10-12T08:17:38;11.80;62.90
11647;DHT22;5880;52.342;9.662;2022-10-12T08:20:04;11.80;63.00
11647;DHT22;5880;52.342;9.662;2022-10-12T08:22:31;11.90;63.20
11647;DHT22;5880;52.342;9.662;2022-10-12T08:24:56;12.00;63.20
11647;DHT22;5880;52.342;9.662;2022-10-12T08:27:22;12.00;63.10
11647;DHT22;5880;52.342;9.662;2022-10-12T08:29:48;12.10;63.10
11647;DHT22;5880;52.342;9.662;2022-10-12T08:32:14;12.20;63.10
11647;DHT22;5880;52.342;9.662;2022-10-12T08:34:39;12.20;63.10
11647;DHT22;5880;52.342;9.662;2022-10-12T08:37:05;12.30;63.20
11647;DHT22;5880;52.342;9.662;2022-10-12T08:39:31;12.30;63.10
11647;DHT22;5880;52.342;9.662;2022-10-12T08:47:44;12.60;63.20
11647;DHT22;5880;52.342;9.662;2022-10-12T08:50:31;12.70;63.20
11647;DHT22;5880;52.342;9.662;2022-10-12T08:56:17;12.80;63.20
11647;DHT22;5880;52.342;9.662;2022-10-12T08:58:46;12.90;63.30
11647;DHT22;5880;52.342;9.662;2022-10-12T09:01:24;13.00;63.10
11647;DHT22;5880;52.342;9.662;2022-10-12T09:10:16;13.20;63.00
11647;DHT22;5880;52.342;9.662;2022-10-12T09:16:20;13.40;63.40
11647;DHT22;5880;52.342;9.662;2022-10-12T09:18:52;13.50;63.20
11647;DHT22;5880;52.342;9.662;2022-10-12T09:21:33;13.70;63.50
11647;DHT22;5880;52.342;9.662;2022-10-12T09:24:00;13.80;64.60
11647;DHT22;5880;52.342;9.662;2022-10-12T09:26:36;14.00;66.00
11647;DHT22;5880;52.342;9.662;2022-10-12T09:34:50;15.00;64.40
11647;DHT22;5880;52.342;9.662;2022-10-12T09:37:22;15.40;66.10
11647;DHT22;5880;52.342;9.662;2022-10-12T09:39:50;15.70;65.40
11647;DHT22;5880;52.342;9.662;2022-10-12T09:42:16;16.10;65.90
11647;DHT22;5880;52.342;9.662;2022-10-12T09:44:46;16.40;65.80
11647;DHT22;5880;52.342;9.662;2022-10-12T09:50:05;17.30;63.90
11647;DHT22;5880;52.342;9.662;2022-10-12T09:57:41;18.60;64.00
11647;DHT22;5880;52.342;9.662;2022-10-12T10:00:30;19.00;63.20
11647;DHT22;5880;52.342;9.662;2022-10-12T10:02:58;19.40;61.00
11647;DHT22;5880;52.342;9.662;2022-10-12T10:05:34;19.80;62.10
11647;DHT22;5880;52.342;9.662;2022-10-12T10:08:20;20.10;58.60
11647;DHT22;5880;52.342;9.662;2022-10-12T10:10:55;20.40;57.10
11647;DHT22;5880;52.342;9.662;2022-10-12T10:13:27;20.60;57.60
11647;DHT22;5880;52.342;9.662;2022-10-12T10:16:22;20.80;56.00
11647;DHT22;5880;52.342;9.662;2022-10-12T10:21:28;20.80;54.60
11647;DHT22;5880;52.342;9.662;2022-10-12T10:24:05;20.80;52.50
11647;DHT22;5880;52.342;9.662;2022-10-12T10:27:25;20.80;51.90
11647;DHT22;5880;52.342;9.662;2022-10-12T10:30:27;20.60;50.50
11647;DHT22;5880;52.342;9.662;2022-10-12T10:33:07;20.50;50.50
11647;DHT22;5880;52.342;9.662;2022-10-12T10:35:39;20.20;49.60
11647;DHT22;5880;52.342;9.662;2022-10-12T10:38:10;20.00;50.40
11647;DHT22;5880;52.342;9.662;2022-10-12T10:40:40;19.70;50.40
11647;DHT22;5880;52.342;9.662;2022-10-12T10:43:18;19.50;50.40
11647;DHT22;5880;52.342;9.662;2022-10-12T10:45:50;19.30;49.40
11647;DHT22;5880;52.342;9.662;2022-10-12T10:48:22;19.00;50.70
11647;DHT22;5880;52.342;9.662;2022-10-12T10:50:54;18.80;50.20
11647;DHT22;5880;52.342;9.662;2022-10-12T10:53:29;18.60;50.60
11647;DHT22;5880;52.342;9.662;2022-10-12T10:56:14;18.40;51.20
11647;DHT22;5880;52.342;9.662;2022-10-12T10:58:56;18.30;51.60
11647;DHT22;5880;52.342;9.662;2022-10-12T11:01:57;18.20;51.70
11647;DHT22;5880;52.342;9.662;2022-10-12T11:04:37;18.00;50.60
11647;DHT22;5880;52.342;9.662;2022-10-12T11:07:28;17.90;51.10
11647;DHT22;5880;52.342;9.662;2022-10-12T11:10:00;17.80;51.70
11647;DHT22;5880;52.342;9.662;2022-10-12T11:12:43;17.60;52.20
11647;DHT22;5880;52.342;9.662;2022-10-12T11:15:34;17.60;52.10
11647;DHT22;5880;52.342;9.662;2022-10-12T11:18:55;17.50;52.00
11647;DHT22;5880;52.342;9.662;2022-10-12T11:25:20;17.40;52.70
11647;DHT22;5880;52.342;9.662;2022-10-12T11:27:50;17.50;53.90
11647;DHT22;5880;52.342;9.662;2022-10-12T11:30:25;17.40;53.80
11647;DHT22;5880;52.342;9.662;2022-10-12T11:33:04;17.30;53.20
11647;DHT22;5880;52.342;9.662;2022-10-12T11:35:40;17.30;53.10
11647;DHT22;5880;52.342;9.662;2022-10-12T11:41:07;17.30;53.30
11647;DHT22;5880;52.342;9.662;2022-10-12T11:43:44;17.40;53.40
11647;DHT22;5880;52.342;9.662;2022-10-12T11:46:25;17.30;53.20
11647;DHT22;5880;52.342;9.662;2022-10-12T11:52:20;17.40;52.30
11647;DHT22;5880;52.342;9.662;2022-10-12T11:57:37;17.50;52.90
11647;DHT22;5880;52.342;9.662;2022-10-12T12:00:25;17.50;53.70
11647;DHT22;5880;52.342;9.662;2022-10-12T12:05:45;17.70;52.50
11647;DHT22;5880;52.342;9.662;2022-10-12T12:11:22;17.80;51.70
11647;DHT22;5880;52.342;9.662;2022-10-12T12:13:50;17.80;51.60
11647;DHT22;5880;52.342;9.662;2022-10-12T12:16:41;17.90;52.80
11647;DHT22;5880;52.342;9.662;2022-10-12T12:19:33;17.90;51.80
11647;DHT22;5880;52.342;9.662;2022-10-12T12:22:23;18.00;51.10
11647;DHT22;5880;52.342;9.662;2022-10-12T12:27:50;18.20;50.70
11647;DHT22;5880;52.342;9.662;2022-10-12T12:30:22;18.20;51.50
11647;DHT22;5880;52.342;9.662;2022-10-12T12:38:46;18.30;50.40
11647;DHT22;5880;52.342;9.662;2022-10-12T12:41:20;18.40;50.40
11647;DHT22;5880;52.342;9.662;2022-10-12T12:43:57;18.40;50.40
11647;DHT22;5880;52.342;9.662;2022-10-12T12:52:04;18.40;49.40
11647;DHT22;5880;52.342;9.662;2022-10-12T12:54:43;18.40;50.00
11647;DHT22;5880;52.342;9.662;2022-10-12T13:06:29;18.50;49.60
11647;DHT22;5880;52.342;9.662;2022-10-12T13:09:24;18.50;50.00
11647;DHT22;5880;52.342;9.662;2022-10-12T13:15:24;18.50;48.40
11647;DHT22;5880;52.342;9.662;2022-10-12T13:21:17;18.40;47.90
11647;DHT22;5880;52.342;9.662;2022-10-12T13:23:49;18.40;48.40
11647;DHT22;5880;52.342;9.662;2022-10-12T13:26:22;18.40;49.00
11647;DHT22;5880;52.342;9.662;2022-10-12T13:28:52;18.30;49.00
11647;DHT22;5880;52.342;9.662;2022-10-12T13:31:26;18.30;49.20
11647;DHT22;5880;52.342;9.662;2022-10-12T13:34:41;18.30;48.90
11647;DHT22;5880;52.342;9.662;2022-10-12T13:37:12;18.40;48.70
11647;DHT22;5880;52.342;9.662;2022-10-12T13:39:44;18.40;49.00
11647;DHT22;5880;52.342;9.662;2022-10-12T13:42:24;18.40;48.60
11647;DHT22;5880;52.342;9.662;2022-10-12T13:44:55;18.40;48.10
11647;DHT22;5880;52.342;9.662;2022-10-12T13:47:27;18.40;49.20
11647;DHT22;5880;52.342;9.662;2022-10-12T13:49:55;18.40;47.90
11647;DHT22;5880;52.342;9.662;2022-10-12T13:52:30;18.40;48.70
11647;DHT22;5880;52.342;9.662;2022-10-12T13:54:58;18.40;47.80
11647;DHT22;5880;52.342;9.662;2022-10-12T13:57:40;18.40;48.80
11647;DHT22;5880;52.342;9.662;2022-10-12T14:00:23;18.40;47.80
11647;DHT22;5880;52.342;9.662;2022-10-12T14:02:57;18.40;48.00
11647;DHT22;5880;52.342;9.662;2022-10-12T14:05:26;18.40;48.50
11647;DHT22;5880;52.342;9.662;2022-10-12T14:08:09;18.50;48.60
11647;DHT22;5880;52.342;9.662;2022-10-12T14:10:42;18.50;47.60
11647;DHT22;5880;52.342;9.662;2022-10-12T14:13:13;18.50;48.60
11647;DHT22;5880;52.342;9.662;2022-10-12T14:15:44;18.60;48.00
11647;DHT22;5880;52.342;9.662;2022-10-12T14:18:39;18.60;48.60
11647;DHT22;5880;52.342;9.662;2022-10-12T14:21:26;18.60;47.10
11647;DHT22;5880;52.342;9.662;2022-10-12T14:23:56;18.60;47.80
11647;DHT22;5880;52.342;9.662;2022-10-12T14:26:40;18.60;48.20
11647;DHT22;5880;52.342;9.662;2022-10-12T14:29:42;18.70;47.70
11647;DHT22;5880;52.342;9.662;2022-10-12T14:34:43;18.70;48.20
11647;DHT22;5880;52.342;9.662;2022-10-12T14:37:22;18.70;47.90
11647;DHT22;5880;52.342;9.662;2022-10-12T14:39:51;18.70;47.50
11647;DHT22;5880;52.342;9.662;2022-10-12T14:42:30;18.70;47.90
11647;DHT22;5880;52.342;9.662;2022-10-12T14:45:02;18.70;47.50
11647;DHT22;5880;52.342;9.662;2022-10-12T14:47:32;18.70;47.80
11647;DHT22;5880;52.342;9.662;2022-10-12T14:50:05;18.70;47.50
11647;DHT22;5880;52.342;9.662;2022-10-12T14:52:43;18.80;47.50
11647;DHT22;5880;52.342;9.662;2022-10-12T14:55:23;18.70;47.40
11647;DHT22;5880;52.342;9.662;2022-10-12T14:57:51;18.80;47.50
11647;DHT22;5880;52.342;9.662;2022-10-12T15:02:46;18.70;47.50
11647;DHT22;5880;52.342;9.662;2022-10-12T15:05:13;18.70;47.50
11647;DHT22;5880;52.342;9.662;2022-10-12T15:07:41;18.60;47.30
11647;DHT22;5880;52.342;9.662;2022-10-12T15:10:07;18.60;47.40
11647;DHT22;5880;52.342;9.662;2022-10-12T15:12:34;18.50;47.80
11647;DHT22;5880;52.342;9.662;2022-10-12T15:15:03;18.50;48.00
11647;DHT22;5880;52.342;9.662;2022-10-12T15:17:41;18.50;48.10
11647;DHT22;5880;52.342;9.662;2022-10-12T15:20:08;18.40;48.20
11647;DHT22;5880;52.342;9.662;2022-10-12T15:22:34;18.40;48.00
11647;DHT22;5880;52.342;9.662;2022-10-12T15:25:00;18.40;48.30
11647;DHT22;5880;52.342;9.662;2022-10-12T15:27:25;18.40;48.30
11647;DHT22;5880;52.342;9.662;2022-10-12T15:29:51;18.40;48.30
11647;DHT22;5880;52.342;9.662;2022-10-12T15:32:18;18.40;48.20
11647;DHT22;5880;52.342;9.662;2022-10-12T15:34:44;18.40;48.10
11647;DHT22;5880;52.342;9.662;2022-10-12T15:37:10;18.40;48.00
11647;DHT22;5880;52.342;9.662;2022-10-12T15:39:36;18.50;48.10
11647;DHT22;5880;52.342;9.662;2022-10-12T15:42:02;18.30;47.90
11647;DHT22;5880;52.342;9.662;2022-10-12T15:44:28;18.30;47.90
11647;DHT22;5880;52.342;9.662;2022-10-12T15:46:53;18.30;47.90
11647;DHT22;5880;52.342;9.662;2022-10-12T15:49:20;18.20;47.90
11647;DHT22;5880;52.342;9.662;2022-10-12T15:51:50;18.20;47.90
11647;DHT22;5880;52.342;9.662;2022-10-12T15:54:18;18.10;47.70
11647;DHT22;5880;52.342;9.662;2022-10-12T15:56:43;18.10;47.90
11647;DHT22;5880;52.342;9.662;2022-10-12T15:59:09;18.10;47.90
11647;DHT22;5880;52.342;9.662;2022-10-12T16:01:35;18.00;47.90
11647;DHT22;5880;52.342;9.662;2022-10-12T16:04:03;18.00;47.90
11647;DHT22;5880;52.342;9.662;2022-10-12T16:06:30;17.90;48.10
11647;DHT22;5880;52.342;9.662;2022-10-12T16:08:56;17.90;48.10
11647;DHT22;5880;52.342;9.662;2022-10-12T16:11:21;17.80;48.10
11647;DHT22;5880;52.342;9.662;2022-10-12T16:13:47;17.80;48.10
11647;DHT22;5880;52.342;9.662;2022-10-12T16:16:15;17.70;48.20
11647;DHT22;5880;52.342;9.662;2022-10-12T16:18:42;17.70;48.40
11647;DHT22;5880;52.342;9.662;2022-10-12T16:21:07;17.60;48.40
11647;DHT22;5880;52.342;9.662;2022-10-12T16:23:35;17.50;48.40
11647;DHT22;5880;52.342;9.662;2022-10-12T16:26:08;17.50;48.60
11647;DHT22;5880;52.342;9.662;2022-10-12T16:28:36;17.50;48.60
11647;DHT22;5880;52.342;9.662;2022-10-12T16:31:11;17.40;48.60
11647;DHT22;5880;52.342;9.662;2022-10-12T16:33:39;17.40;48.60
11647;DHT22;5880;52.342;9.662;2022-10-12T16:36:10;17.30;48.80
11647;DHT22;5880;52.342;9.662;2022-10-12T16:38:38;17.30;48.80
11647;DHT22;5880;52.342;9.662;2022-10-12T16:41:11;17.20;49.00
11647;DHT22;5880;52.342;9.662;2022-10-12T16:43:39;17.20;49.30
11647;DHT22;5880;52.342;9.662;2022-10-12T16:46:05;17.10;49.30
11647;DHT22;5880;52.342;9.662;2022-10-12T16:48:31;17.10;49.40
11647;DHT22;5880;52.342;9.662;2022-10-12T16:50:57;17.00;49.40
11647;DHT22;5880;52.342;9.662;2022-10-12T16:53:23;16.90;49.70
11647;DHT22;5880;52.342;9.662;2022-10-12T16:55:49;16.80;49.70
11647;DHT22;5880;52.342;9.662;2022-10-12T16:58:15;16.80;49.80
11647;DHT22;5880;52.342;9.662;2022-10-12T17:00:41;16.80;50.00
11647;DHT22;5880;52.342;9.662;2022-10-12T17:03:07;16.70;50.00
11647;DHT22;5880;52.342;9.662;2022-10-12T17:05:33;16.60;50.10
11647;DHT22;5880;52.342;9.662;2022-10-12T17:07:59;16.50;50.40
11647;DHT22;5880;52.342;9.662;2022-10-12T17:10:31;16.50;50.50
11647;DHT22;5880;52.342;9.662;2022-10-12T17:12:57;16.40;50.80
11647;DHT22;5880;52.342;9.662;2022-10-12T17:15:22;16.40;50.60
11647;DHT22;5880;52.342;9.662;2022-10-12T17:17:48;16.30;50.80
11647;DHT22;5880;52.342;9.662;2022-10-12T17:20:14;16.20;50.90
11647;DHT22;5880;52.342;9.662;2022-10-12T17:22:39;16.10;51.10
11647;DHT22;5880;52.342;9.662;2022-10-12T17:25:05;16.00;50.90
11647;DHT22;5880;52.342;9.662;2022-10-12T17:27:31;16.00;51.20
11647;DHT22;5880;52.342;9.662;2022-10-12T17:29:57;15.90;51.20
11647;DHT22;5880;52.342;9.662;2022-10-12T17:32:23;15.80;51.10
11647;DHT22;5880;52.342;9.662;2022-10-12T17:34:49;15.80;51.30
11647;DHT22;5880;52.342;9.662;2022-10-12T17:37:15;15.70;51.50
11647;DHT22;5880;52.342;9.662;2022-10-12T17:39:45;15.60;51.50
11647;DHT22;5880;52.342;9.662;2022-10-12T17:42:12;15.60;52.20
11647;DHT22;5880;52.342;9.662;2022-10-12T17:44:38;15.50;51.80
11647;DHT22;5880;52.342;9.662;2022-10-12T17:47:04;15.40;51.80
11647;DHT22;5880;52.342;9.662;2022-10-12T17:49:30;15.40;51.90
11647;DHT22;5880;52.342;9.662;2022-10-12T17:51:56;15.30;52.20
11647;DHT22;5880;52.342;9.662;2022-10-12T17:54:23;15.20;52.20
11647;DHT22;5880;52.342;9.662;2022-10-12T17:56:50;15.20;53.30
11647;DHT22;5880;52.342;9.662;2022-10-12T17:59:18;15.10;52.60
11647;DHT22;5880;52.342;9.662;2022-10-12T18:01:44;15.00;52.60
11647;DHT22;5880;52.342;9.662;2022-10-12T18:04:10;15.00;52.50
11647;DHT22;5880;52.342;9.662;2022-10-12T18:06:37;15.00;52.70